Time;durP1;ratioP1;P1;durP2;ratioP2;P2;SDS_P1;SDS_P2;PMS_P1;PMS_P2;Temp;Humidity;BMP_temperature;BMP_pressure;BME280_temperature;BME280_humidity;BME280_pressure;Samples;Min_cycle;Max_cycle;Signal;HPM_P1;HPM_P2
2023/09/26 05:50:42;;;;;;;19.33;17.38;;;;;;;10.32;100.00;101987.81;6216568;22;20024;-69
2023/09/26 05:53:07;;;;;;;18.70;16.90;;;;;;;10.44;100.00;101996.66;6216482;23;20082;-68
2023/09/26 05:55:33;;;;;;;19.33;17.38;;;;;;;10.53;100.00;101994.09;6216824;23;20008;-69
2023/09/26 05:57:58;;;;;;;19.08;17.13;;;;;;;10.62;100.00;102011.66;6192305;23;20008;-69
2023/09/26 06:00:24;;;;;;;19.05;17.25;;;;;;;10.72;100.00;102014.31;6190087;23;20030;-69
2023/09/26 06:02:51;;;;;;;18.80;17.05;;;;;;;10.84;100.00;102023.13;6216623;23;20449;-69
2023/09/26 06:05:16;;;;;;;17.35;15.70;;;;;;;10.91;100.00;102017.94;6241858;23;20007;-69
2023/09/26 06:07:42;;;;;;;17.35;14.90;;;;;;;11.00;100.00;102013.59;6242655;22;20351;-69
2023/09/26 06:10:10;;;;;;;17.80;15.55;;;;;;;11.14;100.00;102016.31;6242082;23;20174;-70
2023/09/26 06:12:40;;;;;;;16.65;14.70;;;;;;;11.48;100.00;102009.44;6241928;23;20020;-70
2023/09/26 06:15:07;;;;;;;14.90;13.48;;;;;;;11.89;100.00;102019.16;6216693;23;20009;-70
2023/09/26 06:17:33;;;;;;;13.65;12.25;;;;;;;12.43;100.00;102019.22;6214245;23;20323;-70
2023/09/26 06:19:59;;;;;;;14.98;12.60;;;;;;;13.47;100.00;102017.19;6216038;23;20024;-69
2023/09/26 06:22:24;;;;;;;12.32;10.80;;;;;;;14.59;98.43;102019.03;6213184;23;20012;-70
2023/09/26 06:24:50;;;;;;;11.02;9.88;;;;;;;14.95;95.03;102016.94;6190883;23;20091;-70
2023/09/26 06:27:15;;;;;;;13.73;9.68;;;;;;;15.18;91.34;102014.88;6216273;22;20380;-70
2023/09/26 06:29:41;;;;;;;11.45;9.95;;;;;;;15.03;91.59;102009.81;6214528;23;20012;-70
2023/09/26 06:32:10;;;;;;;11.52;9.30;;;;;;;15.03;93.05;102009.81;6215597;23;20016;-70
2023/09/26 06:34:37;;;;;;;14.77;9.80;;;;;;;15.13;90.93;102007.91;6240361;23;20023;-70
2023/09/26 06:37:14;;;;;;;11.00;9.45;;;;;;;15.41;93.36;102006.69;6216786;22;20019;-70
2023/09/26 06:39:40;;;;;;;9.98;9.02;;;;;;;15.00;91.72;101996.66;6241587;23;20008;-70
2023/09/26 06:42:06;;;;;;;12.20;9.93;;;;;;;15.10;92.25;101997.41;6189932;23;20012;-70
2023/09/26 06:44:31;;;;;;;12.98;9.25;;;;;;;15.00;91.98;101994.03;6240105;23;20004;-70
2023/09/26 06:46:58;;;;;;;15.75;9.20;;;;;;;14.78;92.40;102002.16;6216255;22;20367;-70
2023/09/26 06:49:23;;;;;;;13.00;9.85;;;;;;;14.33;95.13;101999.91;6191381;23;20050;-70
2023/09/26 06:51:49;;;;;;;10.50;9.20;;;;;;;14.09;96.45;102001.00;6214759;23;20020;-70
2023/09/26 06:54:14;;;;;;;11.27;9.88;;;;;;;14.01;98.40;101994.94;6191230;23;20019;-70
2023/09/26 06:56:40;;;;;;;12.48;9.30;;;;;;;14.19;97.13;102001.81;6191157;23;20095;-71
2023/09/26 06:59:05;;;;;;;12.55;9.98;;;;;;;14.41;98.64;102005.16;6191349;23;20011;-70
2023/09/26 07:01:31;;;;;;;13.50;9.52;;;;;;;15.37;93.98;101998.81;6189435;23;20007;-70
2023/09/26 07:03:56;;;;;;;12.00;9.07;;;;;;;15.92;89.52;102016.56;6241453;23;20004;-70
2023/09/26 07:06:23;;;;;;;9.20;8.30;;;;;;;15.89;87.79;102013.09;6213182;23;20421;-70
2023/09/26 07:08:48;;;;;;;10.88;8.45;;;;;;;16.08;86.03;102014.53;6213688;23;20016;-70
2023/09/26 07:11:14;;;;;;;11.07;8.20;;;;;;;15.94;87.50;102016.53;6190734;23;20065;-70
2023/09/26 07:13:39;;;;;;;9.45;7.97;;;;;;;16.12;87.06;102010.09;6190404;23;20004;-71
2023/09/26 07:16:07;;;;;;;10.55;8.68;;;;;;;15.76;86.25;102013.25;6189416;23;20012;-70
2023/09/26 07:18:33;;;;;;;10.35;8.02;;;;;;;15.60;88.74;102014.34;6240906;22;20011;-70
2023/09/26 07:21:04;;;;;;;10.93;8.80;;;;;;;15.63;90.74;102016.06;6239202;23;20035;-70
2023/09/26 07:23:34;;;;;;;13.07;9.07;;;;;;;15.87;89.61;102014.88;6240534;23;20004;-70
2023/09/26 07:26:12;;;;;;;11.63;8.68;;;;;;;15.80;89.90;102013.22;6240257;23;20026;-70
2023/09/26 07:28:38;;;;;;;15.07;8.80;;;;;;;15.91;89.37;102011.31;6240689;22;20004;-70
2023/09/26 07:31:04;;;;;;;11.10;9.20;;;;;;;15.87;92.07;102015.75;6213570;23;20082;-70
2023/09/26 07:33:30;;;;;;;11.77;8.77;;;;;;;15.93;88.00;102010.38;6191601;23;20153;-70
2023/09/26 07:35:55;;;;;;;9.90;8.68;;;;;;;16.17;88.97;102007.38;6240119;23;20458;-70
2023/09/26 07:38:21;;;;;;;10.20;8.20;;;;;;;16.54;88.27;101997.00;6189059;23;20012;-70
2023/09/26 07:40:46;;;;;;;9.13;8.23;;;;;;;16.76;85.89;102009.84;6215213;23;20088;-70
2023/09/26 07:43:13;;;;;;;13.13;8.43;;;;;;;16.59;83.97;102003.13;6241617;23;20463;-70
2023/09/26 07:45:39;;;;;;;10.85;8.23;;;;;;;16.76;84.60;102017.78;6216508;23;20008;-71
2023/09/26 07:48:05;;;;;;;12.15;7.97;;;;;;;17.00;84.73;102010.31;6218449;23;20138;-69
2023/09/26 07:50:30;;;;;;;10.40;8.57;;;;;;;16.95;85.13;102013.94;6242770;23;20450;-69
2023/09/26 07:52:56;;;;;;;8.77;7.88;;;;;;;16.57;86.23;102011.97;6192172;23;20015;-70
2023/09/26 07:55:22;;;;;;;12.10;8.55;;;;;;;16.73;85.67;102013.41;6218070;23;20008;-70
2023/09/26 07:57:48;;;;;;;10.85;8.68;;;;;;;16.84;87.14;102015.88;6243327;22;20448;-70
2023/09/26 08:00:14;;;;;;;10.25;8.23;;;;;;;16.86;85.04;102007.91;6242178;23;20083;-69
2023/09/26 08:02:39;;;;;;;11.05;8.77;;;;;;;16.73;84.24;102004.63;6218246;23;20356;-70
2023/09/26 08:05:06;;;;;;;11.75;9.15;;;;;;;16.56;86.70;102000.50;6242783;23;20004;-70
2023/09/26 08:07:32;;;;;;;9.75;8.15;;;;;;;16.63;85.22;101996.84;6218242;23;20012;-70
2023/09/26 08:10:00;;;;;;;10.18;8.45;;;;;;;16.62;85.25;102000.41;6242499;23;20417;-70
2023/09/26 08:12:27;;;;;;;13.10;9.25;;;;;;;16.54;86.53;102007.59;6218614;23;20016;-69
2023/09/26 08:14:53;;;;;;;11.30;8.88;;;;;;;16.57;86.63;102011.97;6214788;23;20012;-70
2023/09/26 08:17:19;;;;;;;11.48;9.30;;;;;;;16.57;87.52;102017.25;6215219;23;20122;-70
2023/09/26 08:19:45;;;;;;;11.77;8.77;;;;;;;16.57;85.69;102009.31;6191193;23;20004;-70
2023/09/26 08:22:11;;;;;;;10.23;8.48;;;;;;;16.53;85.59;102000.56;6190170;23;20034;-70
2023/09/26 08:24:36;;;;;;;9.70;8.52;;;;;;;16.48;87.07;101991.84;6191357;23;20442;-70
2023/09/26 08:27:02;;;;;;;13.93;9.35;;;;;;;16.53;87.99;101989.97;6216763;22;20019;-70
2023/09/26 08:29:27;;;;;;;13.38;9.40;;;;;;;16.54;87.40;101985.56;6215738;23;20008;-70
2023/09/26 08:31:54;;;;;;;11.30;8.65;;;;;;;16.56;87.40;101983.75;6216682;23;20402;-70
2023/09/26 08:34:21;;;;;;;11.00;9.75;;;;;;;16.52;87.85;101977.66;6217559;23;20066;-70
2023/09/26 08:36:46;;;;;;;10.73;9.38;;;;;;;16.61;88.46;101980.13;6242670;23;20004;-70
2023/09/26 08:39:12;;;;;;;11.30;9.45;;;;;;;16.76;87.71;101980.72;6192441;23;20070;-70
2023/09/26 08:41:38;;;;;;;10.80;9.68;;;;;;;17.02;86.43;101987.31;6242099;23;20411;-70
2023/09/26 08:44:04;;;;;;;11.50;10.30;;;;;;;17.34;87.65;101976.06;6216833;23;20093;-69
2023/09/26 08:46:30;;;;;;;10.80;9.77;;;;;;;17.36;84.62;101968.94;6216382;23;20023;-70
2023/09/26 08:48:57;;;;;;;11.95;9.85;;;;;;;17.96;83.72;101978.16;6242254;22;20143;-70
2023/09/26 08:51:22;;;;;;;11.45;8.95;;;;;;;18.22;81.42;101983.75;6217267;23;20383;-69
2023/09/26 08:53:48;;;;;;;10.55;9.05;;;;;;;18.46;81.45;101992.81;6192372;23;20012;-70
2023/09/26 08:56:14;;;;;;;12.32;9.10;;;;;;;18.67;80.33;101984.28;6192122;23;20451;-69
2023/09/26 08:58:41;;;;;;;11.18;8.50;;;;;;;18.52;79.95;101990.88;6244682;22;20034;-70
2023/09/26 09:01:07;;;;;;;12.60;9.88;;;;;;;18.55;80.23;101981.97;6240589;23;20019;-70
2023/09/26 09:03:32;;;;;;;11.27;8.70;;;;;;;18.65;78.75;101980.81;6192089;23;20016;-70
2023/09/26 09:05:58;;;;;;;10.80;8.70;;;;;;;18.82;77.87;101979.44;6217197;23;20085;-70
2023/09/26 09:08:23;;;;;;;9.73;8.15;;;;;;;19.07;75.26;101973.50;6192780;23;20170;-69
2023/09/26 09:10:53;;;;;;;8.98;7.60;;;;;;;19.28;75.96;101972.84;6217500;23;20012;-70
2023/09/26 09:13:33;;;;;;;11.75;8.35;;;;;;;19.30;75.98;101980.78;6242654;23;20405;-70
2023/09/26 09:16:15;;;;;;;9.50;6.87;;;;;;;19.28;74.10;101978.16;6241611;23;20306;-70
2023/09/26 09:18:47;;;;;;;9.50;6.82;;;;;;;19.30;72.73;101973.66;6217452;23;20036;-70
2023/09/26 09:21:32;;;;;;;8.02;6.88;;;;;;;19.67;73.50;101977.84;6242653;23;20004;-70
2023/09/26 09:23:59;;;;;;;8.50;7.35;;;;;;;19.33;70.23;101976.22;6242173;23;20000;-71
2023/09/26 09:26:28;;;;;;;8.65;6.93;;;;;;;19.42;70.78;101971.53;6242357;23;20008;-70
2023/09/26 09:28:55;;;;;;;7.80;6.38;;;;;;;19.45;69.28;101968.78;6217304;23;20050;-71
2023/09/26 09:31:22;;;;;;;9.60;7.68;;;;;;;19.53;71.37;101966.75;6216470;23;20019;-70
2023/09/26 09:33:51;;;;;;;9.40;6.80;;;;;;;19.45;70.44;101974.09;6242394;23;20008;-70
2023/09/26 09:36:18;;;;;;;8.70;7.38;;;;;;;19.37;71.83;101977.88;6217383;23;20016;-70
2023/09/26 09:38:43;;;;;;;10.98;7.32;;;;;;;19.76;71.30;101975.81;6242027;22;20018;-70
2023/09/26 09:41:09;;;;;;;9.73;7.35;;;;;;;19.74;71.03;101976.72;6191571;23;20086;-70
2023/09/26 09:43:36;;;;;;;9.18;6.70;;;;;;;19.78;73.14;101972.16;6217114;23;20016;-70
2023/09/26 09:46:10;;;;;;;9.05;7.10;;;;;;;19.93;70.45;101962.84;6239339;23;20010;-70
2023/09/26 09:48:41;;;;;;;10.70;6.88;;;;;;;19.72;68.38;101967.94;6242029;22;20015;-70
2023/09/26 09:51:10;;;;;;;10.13;7.20;;;;;;;19.98;69.46;101960.03;6242046;23;20437;-69
2023/09/26 09:53:36;;;;;;;8.63;6.72;;;;;;;20.14;71.11;101957.72;6217545;23;20138;-70
2023/09/26 09:56:08;;;;;;;11.10;6.85;;;;;;;20.31;71.16;101955.34;6213527;23;20303;-70
2023/09/26 09:58:38;;;;;;;7.63;6.82;;;;;;;20.39;68.49;101947.97;6241243;22;20403;-69
2023/09/26 10:01:05;;;;;;;8.32;7.53;;;;;;;20.47;70.09;101934.34;6241942;23;20004;-70
2023/09/26 10:03:33;;;;;;;7.05;6.28;;;;;;;20.38;66.54;101940.88;6242772;23;20011;-71
2023/09/26 10:05:59;;;;;;;7.38;6.28;;;;;;;20.45;68.84;101952.19;6241880;23;20011;-70
2023/09/26 10:08:26;;;;;;;7.57;5.95;;;;;;;20.39;66.85;101941.78;6242339;22;20107;-69
2023/09/26 10:10:54;;;;;;;8.73;5.75;;;;;;;20.28;65.84;101944.81;6241850;23;20452;-70
2023/09/26 10:13:20;;;;;;;11.50;6.05;;;;;;;20.19;67.83;101939.81;6242297;23;20491;-70
2023/09/26 10:16:07;;;;;;;7.35;5.32;;;;;;;20.35;68.01;101946.31;6240243;23;20015;-70
2023/09/26 10:18:39;;;;;;;5.78;5.18;;;;;;;20.15;66.32;101952.34;6242326;22;20085;-70
2023/09/26 10:21:26;;;;;;;6.93;5.18;;;;;;;20.23;67.04;101949.44;6240463;23;20102;-70
2023/09/26 10:24:12;;;;;;;6.82;5.40;;;;;;;20.22;67.15;101958.34;6216054;23;20039;-70
2023/09/26 10:26:48;;;;;;;7.65;5.25;;;;;;;20.24;67.25;101949.38;6241221;23;20105;-69
2023/09/26 10:29:19;;;;;;;6.95;4.57;;;;;;;20.35;67.46;101950.78;6241536;22;20366;-70
2023/09/26 10:32:06;;;;;;;6.85;5.32;;;;;;;20.37;67.31;101943.59;6241322;23;20070;-70
2023/09/26 10:34:37;;;;;;;6.90;4.80;;;;;;;20.31;66.87;101947.34;6241519;23;20004;-69
2023/09/26 10:37:07;;;;;;;6.82;4.50;;;;;;;20.56;68.26;101943.84;6241158;22;20050;-69
2023/09/26 10:39:33;;;;;;;6.68;4.35;;;;;;;20.79;70.08;101944.78;6216639;23;20012;-70
2023/09/26 10:42:18;;;;;;;7.97;5.15;;;;;;;21.01;71.24;101943.06;6240303;23;20018;-70
2023/09/26 10:44:49;;;;;;;6.60;4.70;;;;;;;21.11;69.10;101933.78;6240728;23;20004;-70
2023/09/26 10:47:22;;;;;;;5.72;4.32;;;;;;;21.16;66.84;101936.31;6236789;22;20424;-70
2023/09/26 10:49:48;;;;;;;5.07;4.05;;;;;;;21.08;65.76;101935.72;6240350;23;20031;-70
2023/09/26 10:52:14;;;;;;;7.30;4.20;;;;;;;21.04;65.07;101929.63;6190717;23;20078;-70
2023/09/26 10:54:41;;;;;;;6.35;4.20;;;;;;;21.01;65.10;101927.06;6241206;23;20004;-69
2023/09/26 10:57:08;;;;;;;7.97;3.75;;;;;;;20.96;64.95;101931.72;6240387;22;20004;-70
2023/09/26 10:59:34;;;;;;;7.13;3.83;;;;;;;20.88;66.29;101931.16;6240728;23;20004;-70
2023/09/26 11:02:04;;;;;;;6.28;3.72;;;;;;;21.07;68.17;101940.16;6241233;23;20143;-70
2023/09/26 11:04:31;;;;;;;5.38;3.60;;;;;;;21.16;65.74;101933.63;6240789;23;20011;-70
2023/09/26 11:07:02;;;;;;;4.82;3.55;;;;;;;21.56;67.82;101937.38;6241854;22;20342;-70
2023/09/26 11:09:28;;;;;;;4.95;2.72;;;;;;;21.55;62.20;101918.78;6241680;23;20008;-71
2023/09/26 11:11:56;;;;;;;5.88;3.22;;;;;;;21.71;64.20;101914.56;6215923;23;20091;-71
2023/09/26 11:14:26;;;;;;;6.55;2.70;;;;;;;21.72;60.61;101926.97;6215305;23;20093;-71
2023/09/26 11:16:52;;;;;;;5.03;2.83;;;;;;;21.68;61.08;101930.69;6216373;23;20004;-71
2023/09/26 11:19:18;;;;;;;4.28;2.58;;;;;;;21.59;59.92;101947.94;6216798;23;20438;-71
2023/09/26 11:21:46;;;;;;;6.30;2.45;;;;;;;21.51;57.58;101939.38;6245010;23;20391;-72
2023/09/26 11:24:19;;;;;;;4.97;2.72;;;;;;;21.44;58.38;101938.72;6244468;23;20018;-72
2023/09/26 11:26:45;;;;;;;3.35;2.00;;;;;;;21.21;57.59;101930.78;6244687;23;20435;-71
2023/09/26 11:29:12;;;;;;;3.20;2.40;;;;;;;21.06;58.86;101919.78;6219450;23;20107;-71
2023/09/26 11:31:38;;;;;;;4.82;2.53;;;;;;;20.88;57.39;101912.50;6244339;23;20038;-71
2023/09/26 11:34:03;;;;;;;3.50;2.53;;;;;;;20.77;59.51;101911.13;6244801;23;20077;-71
2023/09/26 11:36:31;;;;;;;4.13;2.67;;;;;;;20.77;59.34;101916.44;6219393;23;20008;-71
2023/09/26 11:38:59;;;;;;;4.60;2.72;;;;;;;20.71;62.45;101927.31;6244625;22;20015;-71
2023/09/26 11:41:25;;;;;;;6.20;2.70;;;;;;;20.73;59.91;101929.91;6218253;23;20016;-71
2023/09/26 11:43:52;;;;;;;4.20;2.83;;;;;;;20.77;61.59;101921.78;6219199;23;20287;-72
2023/09/26 11:46:18;;;;;;;5.43;2.80;;;;;;;20.83;61.50;101919.78;6193838;23;20008;-71
2023/09/26 11:48:45;;;;;;;9.15;3.28;;;;;;;20.90;62.49;101916.84;6244283;22;20338;-72
2023/09/26 11:51:13;;;;;;;5.30;3.17;;;;;;;20.91;62.15;101931.03;6218784;23;20379;-70
2023/09/26 11:53:40;;;;;;;4.72;3.22;;;;;;;20.96;62.20;101917.53;6218029;23;20024;-70
2023/09/26 11:56:10;;;;;;;6.75;2.90;;;;;;;20.91;63.69;101907.91;6242971;23;20356;-70
2023/09/26 11:58:36;;;;;;;4.25;2.70;;;;;;;20.96;61.40;101910.41;6219505;23;20086;-72
2023/09/26 12:01:02;;;;;;;5.53;2.85;;;;;;;21.03;62.96;101905.69;6243010;23;20318;-71
2023/09/26 12:03:30;;;;;;;4.10;2.67;;;;;;;21.21;64.76;101906.78;6193540;23;20042;-71
2023/09/26 12:05:55;;;;;;;4.50;2.80;;;;;;;21.20;62.21;101897.03;6193763;23;20019;-71
2023/09/26 12:08:21;;;;;;;6.18;3.03;;;;;;;21.18;61.52;101905.09;6192673;23;20012;-72
2023/09/26 12:10:46;;;;;;;4.20;2.63;;;;;;;21.20;62.43;101902.38;6193176;23;20045;-72
2023/09/26 12:13:12;;;;;;;6.88;2.75;;;;;;;21.27;60.04;101891.41;6193455;23;20500;-71
2023/09/26 12:15:37;;;;;;;5.85;2.72;;;;;;;21.38;64.06;101884.78;6215726;23;20015;-71
2023/09/26 12:18:03;;;;;;;8.23;2.92;;;;;;;21.41;64.94;101885.53;6192850;23;20008;-71
2023/09/26 12:20:33;;;;;;;5.45;3.05;;;;;;;21.59;62.23;101888.38;6192903;23;20008;-71
2023/09/26 12:22:59;;;;;;;4.68;2.65;;;;;;;21.62;59.95;101893.59;6218940;23;20012;-71
2023/09/26 12:25:27;;;;;;;3.85;2.35;;;;;;;21.63;58.81;101887.34;6217065;23;20015;-72
2023/09/26 12:27:53;;;;;;;4.78;2.60;;;;;;;21.62;59.04;101883.81;6241167;22;20059;-71
2023/09/26 12:30:21;;;;;;;5.70;2.60;;;;;;;21.69;59.97;101879.06;6239770;23;20008;-72
2023/09/26 12:32:49;;;;;;;5.47;2.58;;;;;;;21.81;62.05;101867.03;6214316;23;20402;-70
2023/09/26 12:35:14;;;;;;;3.88;2.58;;;;;;;21.83;59.61;101873.16;6215044;23;20430;-71
2023/09/26 12:37:41;;;;;;;5.30;2.95;;;;;;;21.87;59.62;101871.22;6214601;23;20008;-71
2023/09/26 12:40:08;;;;;;;4.63;2.28;;;;;;;21.90;59.48;101866.63;6190473;23;20093;-70
2023/09/26 12:42:34;;;;;;;5.47;2.33;;;;;;;22.26;59.95;101873.09;6241144;23;20010;-70
2023/09/26 12:45:00;;;;;;;4.32;2.63;;;;;;;22.19;56.47;101874.28;6216924;23;20020;-71
2023/09/26 12:47:25;;;;;;;4.47;2.60;;;;;;;22.26;55.80;101873.09;6217279;23;20465;-71
2023/09/26 12:49:51;;;;;;;4.82;2.25;;;;;;;22.17;57.02;101877.03;6243298;23;20485;-71
2023/09/26 12:58:41;;;;;;;4.03;1.92;;;;;;;21.53;55.96;101867.31;6246222;22;20402;-71
2023/09/26 13:01:06;;;;;;;5.45;2.20;;;;;;;21.44;55.27;101876.53;6191272;23;20012;-70
2023/09/26 13:03:32;;;;;;;3.05;1.92;;;;;;;21.36;55.50;101871.50;6191576;23;20418;-70
2023/09/26 13:05:57;;;;;;;3.33;1.90;;;;;;;21.50;56.46;101868.28;6164943;23;20394;-70
2023/09/26 13:08:23;;;;;;;4.10;1.95;;;;;;;21.63;55.89;101879.34;6162016;23;20084;-70
2023/09/26 13:10:51;;;;;;;4.15;1.80;;;;;;;21.66;56.78;101871.19;6161681;23;20004;-68
2023/09/26 13:13:17;;;;;;;2.95;2.00;;;;;;;21.62;56.98;101874.91;6162590;23;20005;-69
2023/09/26 13:15:45;;;;;;;2.90;1.80;;;;;;;21.62;56.01;101883.81;6160042;23;20511;-68
2023/09/26 13:18:11;;;;;;;4.18;2.10;;;;;;;21.57;55.32;101874.25;6162504;23;20020;-68
2023/09/26 13:20:37;;;;;;;3.60;1.95;;;;;;;21.52;57.10;101870.91;6185981;23;20012;-68
2023/09/26 13:23:03;;;;;;;5.00;2.20;;;;;;;21.56;56.65;101870.72;6187092;23;20008;-68
2023/09/26 13:25:29;;;;;;;3.17;1.83;;;;;;;21.51;59.50;101863.81;6183261;23;20219;-68
2023/09/26 13:27:54;;;;;;;4.95;2.30;;;;;;;21.65;57.24;101865.94;6156489;23;20346;-68
2023/09/26 13:30:19;;;;;;;4.65;1.95;;;;;;;21.60;55.55;101861.66;6157144;23;20095;-68
2023/09/26 13:32:45;;;;;;;5.25;2.10;;;;;;;21.57;55.93;101858.25;6158880;23;20342;-69
2023/09/26 13:35:10;;;;;;;3.53;1.85;;;;;;;21.58;55.53;101865.34;6158398;23;20087;-70
2023/09/26 13:37:36;;;;;;;3.72;2.25;;;;;;;21.51;58.00;101863.81;6183665;23;20019;-69
2023/09/26 13:40:04;;;;;;;4.68;2.22;;;;;;;21.43;56.55;101861.47;6183545;23;20514;-69
2023/09/26 13:42:29;;;;;;;4.28;2.08;;;;;;;21.41;56.93;101861.53;6161822;23;20005;-69
2023/09/26 13:44:55;;;;;;;4.35;2.00;;;;;;;21.36;58.12;101855.50;6186937;23;20012;-68
2023/09/26 13:47:20;;;;;;;6.03;2.10;;;;;;;21.41;59.79;101852.66;6187061;23;20043;-68
2023/09/26 13:49:46;;;;;;;4.40;2.53;;;;;;;21.45;59.09;101844.47;6161977;23;20315;-69
2023/09/26 13:52:11;;;;;;;3.17;2.03;;;;;;;21.42;57.69;101849.03;6185558;23;20310;-68
2023/09/26 13:54:37;;;;;;;3.90;2.60;;;;;;;21.50;61.80;101851.41;6161384;23;20074;-69
2023/09/26 13:57:03;;;;;;;3.92;2.30;;;;;;;21.47;61.63;101857.75;6186008;23;20095;-69
2023/09/26 13:59:28;;;;;;;3.30;1.83;;;;;;;21.45;59.68;101854.28;6185983;23;20020;-68
2023/09/26 14:01:57;;;;;;;3.28;2.05;;;;;;;21.50;60.83;101862.94;6186172;23;20569;-70
2023/09/26 14:04:22;;;;;;;4.22;2.10;;;;;;;21.52;59.42;101860.25;6162556;23;20009;-69
2023/09/26 14:06:48;;;;;;;3.30;2.10;;;;;;;21.50;59.00;101851.41;6162263;23;20011;-69
2023/09/26 14:09:13;;;;;;;5.97;2.00;;;;;;;21.54;58.04;101853.91;6161263;23;20016;-69
2023/09/26 14:11:39;;;;;;;2.88;1.88;;;;;;;21.46;58.68;101858.66;6184948;23;20095;-69
2023/09/26 14:14:04;;;;;;;5.72;1.80;;;;;;;21.44;57.99;101864.06;6184120;23;20095;-69
2023/09/26 14:16:30;;;;;;;4.55;2.33;;;;;;;21.42;58.57;101854.38;6157515;23;20016;-69
2023/09/26 14:18:55;;;;;;;3.65;2.00;;;;;;;21.39;58.23;101855.41;6183151;23;20018;-69
2023/09/26 14:21:20;;;;;;;4.00;2.22;;;;;;;21.36;60.60;101859.97;6183211;23;20103;-69
2023/09/26 14:23:46;;;;;;;2.38;2.00;;;;;;;21.29;59.88;101854.00;6159248;23;20040;-69
2023/09/26 14:26:14;;;;;;;3.13;2.08;;;;;;;21.27;62.10;101855.88;6182703;23;20015;-70
2023/09/26 14:28:40;;;;;;;5.05;2.70;;;;;;;21.29;59.39;101849.56;6183198;23;20008;-70
2023/09/26 14:31:09;;;;;;;4.05;2.20;;;;;;;21.26;59.47;101863.03;6182613;23;20012;-71
2023/09/26 14:33:36;;;;;;;5.55;2.75;;;;;;;21.19;62.76;101847.31;6181792;23;20001;-72
2023/09/26 14:36:01;;;;;;;5.15;2.30;;;;;;;21.24;62.10;101840.88;6184436;23;20087;-71
2023/09/26 14:38:26;;;;;;;3.45;2.10;;;;;;;21.19;62.28;101842.00;6185363;23;20040;-71
2023/09/26 14:40:53;;;;;;;5.68;2.20;;;;;;;21.13;61.72;101842.25;6183096;23;20012;-71
2023/09/26 14:43:19;;;;;;;5.10;2.47;;;;;;;21.09;60.85;101846.84;6184799;23;20075;-69
2023/09/26 14:45:46;;;;;;;3.25;2.53;;;;;;;21.01;61.56;101835.63;6160135;23;20066;-70
2023/09/26 14:48:11;;;;;;;6.50;2.78;;;;;;;20.96;61.22;101835.81;6184920;23;20107;-70
2023/09/26 14:50:37;;;;;;;3.65;2.60;;;;;;;20.91;62.18;101832.44;6161008;23;20016;-70
2023/09/26 14:53:02;;;;;;;4.72;2.60;;;;;;;20.90;62.31;101836.03;6185499;23;20447;-69
2023/09/26 14:55:28;;;;;;;4.30;2.35;;;;;;;20.88;61.99;101832.59;6183856;23;20020;-70
2023/09/26 14:57:54;;;;;;;5.32;2.38;;;;;;;20.87;62.38;101837.03;6186118;23;20103;-70
2023/09/26 15:00:20;;;;;;;4.97;2.70;;;;;;;20.87;63.14;101833.50;6212072;23;20134;-69
2023/09/26 15:02:45;;;;;;;4.57;3.00;;;;;;;20.86;63.00;101829.97;6186644;23;20017;-70
2023/09/26 15:05:11;;;;;;;4.20;2.60;;;;;;;20.87;61.65;101829.03;6160004;23;20009;-70
2023/09/26 15:07:36;;;;;;;6.25;3.10;;;;;;;20.86;60.74;101823.75;6185422;23;20009;-69
2023/09/26 15:10:02;;;;;;;4.00;2.67;;;;;;;20.86;60.31;101829.09;6159545;23;20004;-69
2023/09/26 15:12:27;;;;;;;4.65;2.53;;;;;;;20.85;61.08;101828.22;6160659;23;20009;-70
2023/09/26 15:14:53;;;;;;;4.57;2.80;;;;;;;20.81;61.01;101825.75;6183183;23;20421;-70
2023/09/26 15:17:18;;;;;;;4.65;2.58;;;;;;;20.76;61.84;101829.47;6181693;23;20005;-70
2023/09/26 15:19:44;;;;;;;3.85;2.30;;;;;;;20.71;61.96;101826.09;6158392;23;20017;-69
2023/09/26 15:22:10;;;;;;;5.38;2.33;;;;;;;20.74;62.85;101839.28;6182916;23;20016;-70
2023/09/26 15:24:35;;;;;;;3.35;2.33;;;;;;;20.72;62.71;101835.84;6157747;23;20015;-69
2023/09/26 15:27:01;;;;;;;3.40;2.42;;;;;;;20.69;63.63;101841.28;6182498;23;20012;-69
2023/09/26 15:29:26;;;;;;;4.38;2.80;;;;;;;20.67;63.88;101837.78;6160718;23;20063;-70
2023/09/26 15:31:52;;;;;;;4.03;2.40;;;;;;;20.63;64.88;101838.84;6159631;23;20020;-69
2023/09/26 15:34:17;;;;;;;5.25;2.90;;;;;;;20.65;65.21;101834.31;6185801;23;20012;-71
2023/09/26 15:36:43;;;;;;;4.38;2.50;;;;;;;20.62;65.11;101831.75;6210171;23;20036;-70
2023/09/26 15:39:08;;;;;;;4.70;2.70;;;;;;;20.54;64.53;101824.06;6184695;23;20439;-70
2023/09/26 15:41:34;;;;;;;4.68;2.50;;;;;;;20.52;65.65;101822.41;6184297;23;20021;-70
2023/09/26 15:43:59;;;;;;;3.17;2.38;;;;;;;20.47;65.86;101811.03;6161449;23;20019;-70
2023/09/26 15:46:25;;;;;;;5.90;3.00;;;;;;;20.40;66.47;101815.72;6185278;23;20023;-70
2023/09/26 15:48:51;;;;;;;5.80;2.75;;;;;;;20.31;67.40;101802.75;6185850;23;20008;-70
2023/09/26 15:51:18;;;;;;;4.63;2.28;;;;;;;20.29;66.12;101802.81;6212598;23;20297;-67
2023/09/26 15:53:44;;;;;;;4.25;2.50;;;;;;;20.24;68.95;101796.78;6210069;23;20004;-67
2023/09/26 15:56:11;;;;;;;4.53;2.88;;;;;;;20.24;68.43;101795.03;6184748;23;20024;-67
2023/09/26 15:58:37;;;;;;;4.80;2.60;;;;;;;20.20;68.86;101787.19;6184549;23;20012;-69
2023/09/26 16:01:06;;;;;;;4.22;2.80;;;;;;;20.19;69.31;101786.31;6184195;23;20040;-70
2023/09/26 16:03:33;;;;;;;6.22;2.67;;;;;;;20.15;69.52;101786.50;6185327;23;20015;-70
2023/09/26 16:05:59;;;;;;;6.05;2.85;;;;;;;20.03;72.59;101785.16;6186616;23;20068;-70
2023/09/26 16:08:24;;;;;;;4.57;2.88;;;;;;;20.10;71.78;101776.03;6214379;23;20008;-70
2023/09/26 16:10:50;;;;;;;4.93;2.85;;;;;;;20.08;71.84;101778.75;6162293;23;20322;-70
2023/09/26 16:13:16;;;;;;;7.07;2.97;;;;;;;20.06;70.74;101785.91;6188085;23;20008;-70
2023/09/26 16:15:42;;;;;;;4.85;2.53;;;;;;;20.04;71.76;101787.78;6186892;23;20020;-70
2023/09/26 16:18:07;;;;;;;6.22;2.83;;;;;;;20.00;71.25;101775.50;6163301;23;20057;-70
2023/09/26 16:20:36;;;;;;;5.38;2.47;;;;;;;19.95;70.63;101781.91;6186992;23;20096;-69
2023/09/26 16:23:05;;;;;;;4.77;3.00;;;;;;;19.94;70.17;101796.13;6187866;23;20084;-70
2023/09/26 16:25:30;;;;;;;5.03;2.92;;;;;;;19.90;69.24;101787.41;6163168;23;20247;-70
2023/09/26 16:27:56;;;;;;;4.88;2.72;;;;;;;19.83;70.79;101792.06;6162571;23;20412;-69
2023/09/26 16:30:21;;;;;;;9.25;2.95;;;;;;;19.82;70.02;101802.75;6186971;23;20013;-69
2023/09/26 16:32:47;;;;;;;4.43;3.15;;;;;;;19.77;70.67;101815.28;6187069;23;20004;-69
2023/09/26 16:35:12;;;;;;;8.23;5.05;;;;;;;19.65;72.83;101812.16;6162650;23;20415;-69
2023/09/26 16:37:38;;;;;;;4.85;3.75;;;;;;;19.47;75.09;101808.34;6187194;23;20012;-69
2023/09/26 16:40:07;;;;;;;5.13;3.70;;;;;;;19.38;78.11;101806.84;6162888;23;20067;-69
2023/09/26 16:42:33;;;;;;;5.75;3.17;;;;;;;19.33;77.11;101806.13;6186787;23;20024;-69
2023/09/26 16:44:58;;;;;;;10.93;3.35;;;;;;;19.21;80.65;101807.41;6186956;23;20013;-69
2023/09/26 16:47:24;;;;;;;3.75;2.75;;;;;;;19.18;79.99;101810.19;6187711;23;20009;-69
2023/09/26 16:49:50;;;;;;;6.00;3.22;;;;;;;19.00;81.75;101810.75;6188137;23;20022;-69
2023/09/26 16:52:16;;;;;;;6.82;3.10;;;;;;;18.89;80.20;101810.22;6187712;23;20015;-70
2023/09/26 16:54:41;;;;;;;3.65;3.03;;;;;;;18.84;79.01;101813.00;6187985;23;20016;-69
2023/09/26 16:57:07;;;;;;;5.13;2.95;;;;;;;18.78;80.24;101798.13;6187215;23;20474;-69
2023/09/26 16:59:32;;;;;;;6.07;3.30;;;;;;;18.60;82.70;101794.22;6186991;23;20036;-70
2023/09/26 17:01:57;;;;;;;9.30;3.75;;;;;;;18.45;83.99;101784.97;6187537;23;20087;-69
2023/09/26 17:04:23;;;;;;;5.05;3.50;;;;;;;18.37;83.87;101786.97;6187707;23;20098;-70
2023/09/26 17:06:55;;;;;;;4.78;3.50;;;;;;;18.30;83.13;101790.72;6214057;23;20012;-70
2023/09/26 17:09:21;;;;;;;4.88;3.50;;;;;;;18.24;82.99;101781.13;6187419;23;20387;-70
2023/09/26 17:11:47;;;;;;;7.88;3.80;;;;;;;18.21;83.19;101786.53;6187248;23;20009;-70
2023/09/26 17:14:12;;;;;;;7.13;4.05;;;;;;;18.15;84.07;101792.88;6187650;23;20441;-70
2023/09/26 17:16:37;;;;;;;7.32;3.67;;;;;;;18.09;85.70;101797.50;6211684;23;20445;-70